sensor_id;sensor_type;location;lat;lon;timestamp;P1;P2;P0
68841;PMS5003;55849;48.482;2.332;2023-07-16T00:00:24;4.00;3.00;1.50
68841;PMS5003;55849;48.482;2.332;2023-07-16T00:03:26;2.25;2.25;1.25
68841;PMS5003;55849;48.482;2.332;2023-07-16T00:06:28;5.25;2.00;2.00
68841;PMS5003;55849;48.482;2.332;2023-07-16T00:09:29;4.00;2.00;2.00
68841;PMS5003;55849;48.482;2.332;2023-07-16T00:12:32;3.25;3.25;2.00
68841;PMS5003;55849;48.482;2.332;2023-07-16T00:15:34;2.00;2.00;2.00
68841;PMS5003;55849;48.482;2.332;2023-07-16T00:18:35;3.00;3.00;1.00
68841;PMS5003;55849;48.482;2.332;2023-07-16T00:21:37;4.50;2.50;1.25
68841;PMS5003;55849;48.482;2.332;2023-07-16T00:24:38;4.00;3.00;2.00
68841;PMS5003;55849;48.482;2.332;2023-07-16T00:27:41;2.00;2.00;2.00
68841;PMS5003;55849;48.482;2.332;2023-07-16T00:30:43;2.00;2.00;2.00
68841;PMS5003;55849;48.482;2.332;2023-07-16T00:33:44;2.00;2.00;1.50
68841;PMS5003;55849;48.482;2.332;2023-07-16T00:36:46;3.00;2.00;1.25
68841;PMS5003;55849;48.482;2.332;2023-07-16T00:39:48;2.25;2.25;2.00
68841;PMS5003;55849;48.482;2.332;2023-07-16T00:42:51;4.00;4.00;2.75
68841;PMS5003;55849;48.482;2.332;2023-07-16T00:45:52;3.75;3.00;2.00
68841;PMS5003;55849;48.482;2.332;2023-07-16T00:48:54;4.00;1.75;1.75
68841;PMS5003;55849;48.482;2.332;2023-07-16T00:51:56;4.00;3.25;2.00
68841;PMS5003;55849;48.482;2.332;2023-07-16T00:54:58;5.75;4.00;2.00
68841;PMS5003;55849;48.482;2.332;2023-07-16T00:58:02;4.00;4.00;2.00
68841;PMS5003;55849;48.482;2.332;2023-07-16T01:01:05;4.75;3.00;2.00
68841;PMS5003;55849;48.482;2.332;2023-07-16T01:04:07;2.75;2.50;1.50
68841;PMS5003;55849;48.482;2.332;2023-07-16T01:07:09;3.75;3.75;2.00
68841;PMS5003;55849;48.482;2.332;2023-07-16T01:10:15;3.50;2.25;1.00
68841;PMS5003;55849;48.482;2.332;2023-07-16T01:13:18;3.00;3.00;2.25
68841;PMS5003;55849;48.482;2.332;2023-07-16T01:16:21;3.00;2.50;1.00
68841;PMS5003;55849;48.482;2.332;2023-07-16T01:19:24;5.50;3.25;2.00
68841;PMS5003;55849;48.482;2.332;2023-07-16T01:22:27;6.25;3.25;1.75
68841;PMS5003;55849;48.482;2.332;2023-07-16T01:25:48;4.50;3.00;1.25
68841;PMS5003;55849;48.482;2.332;2023-07-16T01:29:13;5.25;3.75;2.00
68841;PMS5003;55849;48.482;2.332;2023-07-16T01:32:22;5.00;3.50;2.00
68841;PMS5003;55849;48.482;2.332;2023-07-16T01:35:25;4.25;2.50;2.00
68841;PMS5003;55849;48.482;2.332;2023-07-16T01:38:27;2.25;2.00;1.00
68841;PMS5003;55849;48.482;2.332;2023-07-16T01:41:29;2.25;2.25;1.75
68841;PMS5003;55849;48.482;2.332;2023-07-16T01:44:32;6.75;5.00;1.50
68841;PMS5003;55849;48.482;2.332;2023-07-16T01:47:35;2.00;2.00;2.00
68841;PMS5003;55849;48.482;2.332;2023-07-16T01:50:46;4.00;4.00;2.00
68841;PMS5003;55849;48.482;2.332;2023-07-16T01:53:47;4.25;2.00;1.50
68841;PMS5003;55849;48.482;2.332;2023-07-16T01:56:49;4.25;3.75;2.00
68841;PMS5003;55849;48.482;2.332;2023-07-16T01:59:52;4.00;3.00;2.00
68841;PMS5003;55849;48.482;2.332;2023-07-16T02:02:53;5.50;3.75;2.00
68841;PMS5003;55849;48.482;2.332;2023-07-16T02:05:55;3.00;2.25;2.00
68841;PMS5003;55849;48.482;2.332;2023-07-16T02:08:57;1.50;1.50;1.00
68841;PMS5003;55849;48.482;2.332;2023-07-16T02:11:58;3.50;2.00;1.75
68841;PMS5003;55849;48.482;2.332;2023-07-16T02:15:01;3.50;3.50;2.00
68841;PMS5003;55849;48.482;2.332;2023-07-16T02:18:03;3.50;3.00;2.00
68841;PMS5003;55849;48.482;2.332;2023-07-16T02:21:05;4.00;4.00;2.00
68841;PMS5003;55849;48.482;2.332;2023-07-16T02:24:07;4.00;2.75;2.00
68841;PMS5003;55849;48.482;2.332;2023-07-16T02:27:08;3.75;3.75;2.00
68841;PMS5003;55849;48.482;2.332;2023-07-16T02:30:11;3.00;2.00;2.00
68841;PMS5003;55849;48.482;2.332;2023-07-16T02:33:13;2.50;2.50;2.00
68841;PMS5003;55849;48.482;2.332;2023-07-16T02:36:14;2.25;2.25;1.00
68841;PMS5003;55849;48.482;2.332;2023-07-16T02:39:16;5.00;3.00;1.75
68841;PMS5003;55849;48.482;2.332;2023-07-16T02:42:17;2.25;2.25;2.00
68841;PMS5003;55849;48.482;2.332;2023-07-16T02:45:20;3.00;2.00;1.25
68841;PMS5003;55849;48.482;2.332;2023-07-16T02:48:22;4.25;2.75;2.00
68841;PMS5003;55849;48.482;2.332;2023-07-16T02:51:24;4.25;2.50;1.00
68841;PMS5003;55849;48.482;2.332;2023-07-16T02:54:25;2.25;2.00;2.00
68841;PMS5003;55849;48.482;2.332;2023-07-16T02:57:27;3.00;3.00;2.00
68841;PMS5003;55849;48.482;2.332;2023-07-16T03:00:30;6.00;4.75;2.00
68841;PMS5003;55849;48.482;2.332;2023-07-16T03:03:32;3.00;3.00;1.00
68841;PMS5003;55849;48.482;2.332;2023-07-16T03:06:34;2.00;2.00;1.00
68841;PMS5003;55849;48.482;2.332;2023-07-16T03:09:35;3.25;2.75;2.00
68841;PMS5003;55849;48.482;2.332;2023-07-16T03:12:37;4.50;2.00;1.50
68841;PMS5003;55849;48.482;2.332;2023-07-16T03:15:40;3.25;3.25;2.00
68841;PMS5003;55849;48.482;2.332;2023-07-16T03:18:41;3.25;3.00;2.00
68841;PMS5003;55849;48.482;2.332;2023-07-16T03:21:43;3.00;3.00;1.25
68841;PMS5003;55849;48.482;2.332;2023-07-16T03:24:46;2.50;2.50;2.00
68841;PMS5003;55849;48.482;2.332;2023-07-16T03:27:47;1.00;1.00;1.00
68841;PMS5003;55849;48.482;2.332;2023-07-16T03:30:50;4.00;2.00;1.25
68841;PMS5003;55849;48.482;2.332;2023-07-16T03:33:54;3.50;3.50;2.00
68841;PMS5003;55849;48.482;2.332;2023-07-16T03:36:55;3.00;3.00;1.50
68841;PMS5003;55849;48.482;2.332;2023-07-16T03:40:01;3.50;2.25;1.25
68841;PMS5003;55849;48.482;2.332;2023-07-16T03:43:13;3.25;3.25;1.75
68841;PMS5003;55849;48.482;2.332;2023-07-16T03:46:16;3.50;2.75;1.00
68841;PMS5003;55849;48.482;2.332;2023-07-16T03:49:18;2.25;2.25;1.75
68841;PMS5003;55849;48.482;2.332;2023-07-16T03:52:19;6.50;4.00;2.50
68841;PMS5003;55849;48.482;2.332;2023-07-16T03:55:21;4.00;4.00;3.00
68841;PMS5003;55849;48.482;2.332;2023-07-16T03:58:22;5.50;4.50;2.50
68841;PMS5003;55849;48.482;2.332;2023-07-16T04:01:25;4.25;4.25;3.50
68841;PMS5003;55849;48.482;2.332;2023-07-16T04:04:27;5.00;3.50;2.00
68841;PMS5003;55849;48.482;2.332;2023-07-16T04:07:29;6.25;4.00;2.25
68841;PMS5003;55849;48.482;2.332;2023-07-16T04:10:30;9.75;8.00;3.75
68841;PMS5003;55849;48.482;2.332;2023-07-16T04:13:32;4.75;4.75;3.00
68841;PMS5003;55849;48.482;2.332;2023-07-16T04:16:35;7.00;7.00;2.25
68841;PMS5003;55849;48.482;2.332;2023-07-16T04:19:37;3.75;3.75;2.25
68841;PMS5003;55849;48.482;2.332;2023-07-16T04:22:39;6.00;4.00;3.00
68841;PMS5003;55849;48.482;2.332;2023-07-16T04:25:41;5.50;4.50;2.00
68841;PMS5003;55849;48.482;2.332;2023-07-16T04:28:42;11.00;6.00;3.00
68841;PMS5003;55849;48.482;2.332;2023-07-16T04:31:45;3.00;3.00;2.75
68841;PMS5003;55849;48.482;2.332;2023-07-16T04:34:47;5.50;3.00;2.00
68841;PMS5003;55849;48.482;2.332;2023-07-16T04:37:48;5.25;3.50;2.25
68841;PMS5003;55849;48.482;2.332;2023-07-16T04:40:50;10.00;5.50;3.00
68841;PMS5003;55849;48.482;2.332;2023-07-16T04:43:51;6.75;4.50;3.00
68841;PMS5003;55849;48.482;2.332;2023-07-16T04:46:54;7.25;5.75;3.25
68841;PMS5003;55849;48.482;2.332;2023-07-16T04:49:57;8.25;7.00;3.00
68841;PMS5003;55849;48.482;2.332;2023-07-16T04:52:59;11.25;7.00;4.00
68841;PMS5003;55849;48.482;2.332;2023-07-16T04:56:00;4.75;4.00;3.00
68841;PMS5003;55849;48.482;2.332;2023-07-16T04:59:02;7.50;5.75;3.00
68841;PMS5003;55849;48.482;2.332;2023-07-16T05:02:05;6.25;5.75;2.25
68841;PMS5003;55849;48.482;2.332;2023-07-16T05:05:07;4.25;4.00;2.00
68841;PMS5003;55849;48.482;2.332;2023-07-16T05:08:09;7.00;5.00;3.00
68841;PMS5003;55849;48.482;2.332;2023-07-16T05:11:11;5.25;3.75;2.25
68841;PMS5003;55849;48.482;2.332;2023-07-16T05:14:13;9.25;4.25;3.00
68841;PMS5003;55849;48.482;2.332;2023-07-16T05:17:16;7.00;7.00;3.00
68841;PMS5003;55849;48.482;2.332;2023-07-16T05:20:18;6.50;6.50;3.25
68841;PMS5003;55849;48.482;2.332;2023-07-16T05:23:19;4.25;4.25;3.00
68841;PMS5003;55849;48.482;2.332;2023-07-16T05:26:21;5.50;4.00;2.25
68841;PMS5003;55849;48.482;2.332;2023-07-16T05:29:22;5.75;4.75;3.00
68841;PMS5003;55849;48.482;2.332;2023-07-16T05:32:26;6.25;6.25;3.25
68841;PMS5003;55849;48.482;2.332;2023-07-16T05:35:27;4.50;4.00;2.00
68841;PMS5003;55849;48.482;2.332;2023-07-16T05:38:29;6.25;5.25;4.00
68841;PMS5003;55849;48.482;2.332;2023-07-16T05:41:30;4.00;4.00;2.75
68841;PMS5003;55849;48.482;2.332;2023-07-16T05:44:32;12.00;7.00;3.00
68841;PMS5003;55849;48.482;2.332;2023-07-16T05:47:35;6.50;6.50;2.75
68841;PMS5003;55849;48.482;2.332;2023-07-16T05:50:36;7.00;4.00;3.50
68841;PMS5003;55849;48.482;2.332;2023-07-16T05:53:38;5.25;5.00;4.00
68841;PMS5003;55849;48.482;2.332;2023-07-16T05:56:39;6.00;6.00;4.00
68841;PMS5003;55849;48.482;2.332;2023-07-16T05:59:41;5.50;4.00;3.00
68841;PMS5003;55849;48.482;2.332;2023-07-16T06:02:44;7.25;5.25;3.50
68841;PMS5003;55849;48.482;2.332;2023-07-16T06:05:46;14.25;7.25;4.00
68841;PMS5003;55849;48.482;2.332;2023-07-16T06:08:47;7.25;6.00;3.25
68841;PMS5003;55849;48.482;2.332;2023-07-16T06:11:49;6.25;6.25;4.00
68841;PMS5003;55849;48.482;2.332;2023-07-16T06:14:51;7.75;4.25;3.75
68841;PMS5003;55849;48.482;2.332;2023-07-16T06:17:54;6.25;6.25;4.00
68841;PMS5003;55849;48.482;2.332;2023-07-16T06:20:55;6.50;5.00;3.50
68841;PMS5003;55849;48.482;2.332;2023-07-16T06:23:57;6.00;4.75;3.00
68841;PMS5003;55849;48.482;2.332;2023-07-16T06:26:59;11.75;7.25;4.00
68841;PMS5003;55849;48.482;2.332;2023-07-16T06:30:00;7.00;6.00;3.00
68841;PMS5003;55849;48.482;2.332;2023-07-16T06:33:03;7.00;5.50;3.50
68841;PMS5003;55849;48.482;2.332;2023-07-16T06:36:05;10.00;7.00;4.75
68841;PMS5003;55849;48.482;2.332;2023-07-16T06:39:06;8.75;5.50;3.00
68841;PMS5003;55849;48.482;2.332;2023-07-16T06:42:08;10.50;7.25;4.00
68841;PMS5003;55849;48.482;2.332;2023-07-16T06:45:09;6.50;6.25;3.00
68841;PMS5003;55849;48.482;2.332;2023-07-16T06:48:13;8.00;5.00;3.00
68841;PMS5003;55849;48.482;2.332;2023-07-16T06:51:14;4.50;4.50;3.00
68841;PMS5003;55849;48.482;2.332;2023-07-16T06:54:16;6.75;5.50;2.75
68841;PMS5003;55849;48.482;2.332;2023-07-16T06:57:17;9.75;8.50;5.00
68841;PMS5003;55849;48.482;2.332;2023-07-16T07:00:19;6.75;4.25;2.50
68841;PMS5003;55849;48.482;2.332;2023-07-16T07:03:22;5.25;4.50;3.00
68841;PMS5003;55849;48.482;2.332;2023-07-16T07:06:24;7.00;5.75;4.00
68841;PMS5003;55849;48.482;2.332;2023-07-16T07:09:25;8.00;7.50;5.00
68841;PMS5003;55849;48.482;2.332;2023-07-16T07:12:27;10.25;5.75;4.25
68841;PMS5003;55849;48.482;2.332;2023-07-16T07:15:28;9.50;6.75;4.25
68841;PMS5003;55849;48.482;2.332;2023-07-16T07:18:31;6.00;4.75;3.75
68841;PMS5003;55849;48.482;2.332;2023-07-16T07:21:33;8.75;7.25;4.00
68841;PMS5003;55849;48.482;2.332;2023-07-16T07:24:34;8.50;8.00;4.00
68841;PMS5003;55849;48.482;2.332;2023-07-16T07:27:36;8.50;7.25;4.00
68841;PMS5003;55849;48.482;2.332;2023-07-16T07:30:38;5.50;5.25;3.00
68841;PMS5003;55849;48.482;2.332;2023-07-16T07:33:40;6.75;5.25;3.25
68841;PMS5003;55849;48.482;2.332;2023-07-16T07:36:42;5.50;5.00;3.00
68841;PMS5003;55849;48.482;2.332;2023-07-16T07:39:44;8.75;5.50;4.00
68841;PMS5003;55849;48.482;2.332;2023-07-16T07:42:47;5.50;5.50;3.75
68841;PMS5003;55849;48.482;2.332;2023-07-16T07:45:49;6.50;6.00;4.25
68841;PMS5003;55849;48.482;2.332;2023-07-16T07:48:52;6.50;4.75;3.00
68841;PMS5003;55849;48.482;2.332;2023-07-16T07:51:54;6.00;6.00;4.25
68841;PMS5003;55849;48.482;2.332;2023-07-16T07:54:55;5.75;5.75;3.00
68841;PMS5003;55849;48.482;2.332;2023-07-16T07:57:57;7.25;6.50;3.00
68841;PMS5003;55849;48.482;2.332;2023-07-16T08:01:03;7.25;4.50;3.00
68841;PMS5003;55849;48.482;2.332;2023-07-16T08:04:06;5.25;5.00;2.75
68841;PMS5003;55849;48.482;2.332;2023-07-16T08:07:08;4.75;4.00;3.00
68841;PMS5003;55849;48.482;2.332;2023-07-16T08:10:09;4.50;4.50;2.75
68841;PMS5003;55849;48.482;2.332;2023-07-16T08:13:11;7.25;4.75;2.50
68841;PMS5003;55849;48.482;2.332;2023-07-16T08:16:13;11.25;6.25;3.50
68841;PMS5003;55849;48.482;2.332;2023-07-16T08:19:16;3.00;2.25;2.00
68841;PMS5003;55849;48.482;2.332;2023-07-16T08:22:17;4.75;3.00;2.00
68841;PMS5003;55849;48.482;2.332;2023-07-16T08:25:19;6.25;5.00;2.50
68841;PMS5003;55849;48.482;2.332;2023-07-16T08:28:21;3.75;2.50;2.00
68841;PMS5003;55849;48.482;2.332;2023-07-16T08:31:22;6.25;4.00;2.00
68841;PMS5003;55849;48.482;2.332;2023-07-16T08:34:25;5.00;4.00;3.00
68841;PMS5003;55849;48.482;2.332;2023-07-16T08:37:27;3.25;3.00;2.00
68841;PMS5003;55849;48.482;2.332;2023-07-16T08:40:30;4.25;4.25;2.00
68841;PMS5003;55849;48.482;2.332;2023-07-16T08:43:32;3.25;3.00;2.00
68841;PMS5003;55849;48.482;2.332;2023-07-16T08:46:34;5.75;3.50;2.50
68841;PMS5003;55849;48.482;2.332;2023-07-16T08:49:37;5.00;3.00;2.00
68841;PMS5003;55849;48.482;2.332;2023-07-16T08:52:41;5.25;3.75;2.00
68841;PMS5003;55849;48.482;2.332;2023-07-16T08:55:44;5.25;2.25;1.00
68841;PMS5003;55849;48.482;2.332;2023-07-16T08:58:46;4.00;2.25;2.00
68841;PMS5003;55849;48.482;2.332;2023-07-16T09:01:48;3.00;1.75;1.25
68841;PMS5003;55849;48.482;2.332;2023-07-16T09:04:51;4.00;4.00;1.50
68841;PMS5003;55849;48.482;2.332;2023-07-16T09:07:54;5.00;3.50;2.00
68841;PMS5003;55849;48.482;2.332;2023-07-16T09:10:56;6.25;3.25;2.00
68841;PMS5003;55849;48.482;2.332;2023-07-16T09:14:01;2.25;2.00;1.50
68841;PMS5003;55849;48.482;2.332;2023-07-16T09:17:03;3.00;2.00;1.75
68841;PMS5003;55849;48.482;2.332;2023-07-16T09:20:07;3.25;2.50;1.00
68841;PMS5003;55849;48.482;2.332;2023-07-16T09:23:10;6.25;4.50;2.00
68841;PMS5003;55849;48.482;2.332;2023-07-16T09:26:11;2.00;2.00;1.25
68841;PMS5003;55849;48.482;2.332;2023-07-16T09:29:13;3.50;3.50;2.00
68841;PMS5003;55849;48.482;2.332;2023-07-16T09:32:14;2.50;2.50;2.00
68841;PMS5003;55849;48.482;2.332;2023-07-16T09:35:17;5.75;3.75;2.00
68841;PMS5003;55849;48.482;2.332;2023-07-16T09:38:19;2.50;2.50;1.50
68841;PMS5003;55849;48.482;2.332;2023-07-16T09:41:21;3.00;3.00;2.00
68841;PMS5003;55849;48.482;2.332;2023-07-16T09:44:23;4.00;2.00;2.00
68841;PMS5003;55849;48.482;2.332;2023-07-16T09:47:24;5.75;3.00;2.00
68841;PMS5003;55849;48.482;2.332;2023-07-16T09:50:28;4.00;4.00;2.00
68841;PMS5003;55849;48.482;2.332;2023-07-16T09:53:31;2.25;2.25;1.00
68841;PMS5003;55849;48.482;2.332;2023-07-16T09:56:36;5.00;3.00;2.75
68841;PMS5003;55849;48.482;2.332;2023-07-16T09:59:41;6.25;2.75;1.25
68841;PMS5003;55849;48.482;2.332;2023-07-16T10:02:44;2.00;2.00;1.25
68841;PMS5003;55849;48.482;2.332;2023-07-16T10:05:47;2.00;2.00;1.00
68841;PMS5003;55849;48.482;2.332;2023-07-16T10:08:49;5.00;3.00;1.50
68841;PMS5003;55849;48.482;2.332;2023-07-16T10:11:51;5.75;2.75;2.00
68841;PMS5003;55849;48.482;2.332;2023-07-16T10:14:53;4.50;3.00;2.00
68841;PMS5003;55849;48.482;2.332;2023-07-16T10:17:57;2.00;2.00;1.00
68841;PMS5003;55849;48.482;2.332;2023-07-16T10:21:04;3.50;2.25;1.75
68841;PMS5003;55849;48.482;2.332;2023-07-16T10:24:15;6.25;4.50;2.75
68841;PMS5003;55849;48.482;2.332;2023-07-16T10:27:26;4.75;4.25;2.00
68841;PMS5003;55849;48.482;2.332;2023-07-16T10:30:28;3.25;3.25;3.00
68841;PMS5003;55849;48.482;2.332;2023-07-16T10:33:31;2.50;2.25;2.00
68841;PMS5003;55849;48.482;2.332;2023-07-16T10:36:38;5.25;4.00;3.00
68841;PMS5003;55849;48.482;2.332;2023-07-16T10:39:45;5.25;3.00;2.00
68841;PMS5003;55849;48.482;2.332;2023-07-16T10:42:47;2.75;2.75;2.00
68841;PMS5003;55849;48.482;2.332;2023-07-16T10:45:50;4.00;3.00;2.00
68841;PMS5003;55849;48.482;2.332;2023-07-16T10:48:52;6.25;2.00;1.25
68841;PMS5003;55849;48.482;2.332;2023-07-16T10:51:54;3.75;1.75;1.25
68841;PMS5003;55849;48.482;2.332;2023-07-16T10:54:56;8.25;6.00;3.00
68841;PMS5003;55849;48.482;2.332;2023-07-16T10:57:58;4.50;3.00;2.00
68841;PMS5003;55849;48.482;2.332;2023-07-16T11:01:05;4.75;3.75;2.00
68841;PMS5003;55849;48.482;2.332;2023-07-16T11:04:09;3.00;2.00;1.00
68841;PMS5003;55849;48.482;2.332;2023-07-16T11:07:12;2.75;2.75;1.75
68841;PMS5003;55849;48.482;2.332;2023-07-16T11:10:14;8.50;8.50;6.25
68841;PMS5003;55849;48.482;2.332;2023-07-16T11:13:16;14.50;13.75;10.25
68841;PMS5003;55849;48.482;2.332;2023-07-16T11:16:18;10.50;8.25;5.00
68841;PMS5003;55849;48.482;2.332;2023-07-16T11:19:19;9.25;9.25;7.00
68841;PMS5003;55849;48.482;2.332;2023-07-16T11:22:25;7.75;4.00;2.50
68841;PMS5003;55849;48.482;2.332;2023-07-16T11:25:28;5.75;4.00;3.00
68841;PMS5003;55849;48.482;2.332;2023-07-16T11:28:35;8.75;5.00;3.25
68841;PMS5003;55849;48.482;2.332;2023-07-16T11:31:38;10.00;7.00;4.50
68841;PMS5003;55849;48.482;2.332;2023-07-16T11:34:51;6.00;5.00;3.00
68841;PMS5003;55849;48.482;2.332;2023-07-16T11:37:55;5.25;4.50;2.50
68841;PMS5003;55849;48.482;2.332;2023-07-16T11:40:59;2.25;1.50;1.50
68841;PMS5003;55849;48.482;2.332;2023-07-16T11:44:01;4.00;3.50;2.00
68841;PMS5003;55849;48.482;2.332;2023-07-16T11:47:03;3.75;3.75;2.00
68841;PMS5003;55849;48.482;2.332;2023-07-16T11:50:05;5.00;2.75;2.00
68841;PMS5003;55849;48.482;2.332;2023-07-16T11:53:09;2.00;2.00;2.00
68841;PMS5003;55849;48.482;2.332;2023-07-16T11:56:11;4.00;3.00;2.00
68841;PMS5003;55849;48.482;2.332;2023-07-16T11:59:12;4.25;4.25;3.00
68841;PMS5003;55849;48.482;2.332;2023-07-16T12:02:14;5.50;2.75;2.00
68841;PMS5003;55849;48.482;2.332;2023-07-16T12:05:16;2.00;2.00;2.00
68841;PMS5003;55849;48.482;2.332;2023-07-16T12:08:19;4.75;4.75;2.00
68841;PMS5003;55849;48.482;2.332;2023-07-16T12:11:20;3.25;2.75;2.00
68841;PMS5003;55849;48.482;2.332;2023-07-16T12:14:23;5.00;2.25;2.00
68841;PMS5003;55849;48.482;2.332;2023-07-16T12:17:24;4.75;4.75;2.00
68841;PMS5003;55849;48.482;2.332;2023-07-16T12:20:26;3.75;3.00;2.00
68841;PMS5003;55849;48.482;2.332;2023-07-16T12:23:29;3.75;3.75;2.00
68841;PMS5003;55849;48.482;2.332;2023-07-16T12:26:31;3.00;3.00;2.00
68841;PMS5003;55849;48.482;2.332;2023-07-16T12:29:32;3.25;3.25;1.00
68841;PMS5003;55849;48.482;2.332;2023-07-16T12:32:34;5.25;4.00;3.00
68841;PMS5003;55849;48.482;2.332;2023-07-16T12:35:35;5.00;3.00;2.00
68841;PMS5003;55849;48.482;2.332;2023-07-16T12:38:38;3.50;3.50;2.00
68841;PMS5003;55849;48.482;2.332;2023-07-16T12:41:41;3.25;2.25;2.00
68841;PMS5003;55849;48.482;2.332;2023-07-16T12:44:44;6.50;3.75;3.00
68841;PMS5003;55849;48.482;2.332;2023-07-16T12:47:46;4.75;3.00;2.00
68841;PMS5003;55849;48.482;2.332;2023-07-16T12:50:47;4.50;3.50;1.75
68841;PMS5003;55849;48.482;2.332;2023-07-16T12:53:51;4.00;3.00;2.00
68841;PMS5003;55849;48.482;2.332;2023-07-16T12:56:52;5.50;4.50;2.75
68841;PMS5003;55849;48.482;2.332;2023-07-16T12:59:54;7.75;5.25;3.00
68841;PMS5003;55849;48.482;2.332;2023-07-16T13:02:55;7.75;3.25;2.25
68841;PMS5003;55849;48.482;2.332;2023-07-16T13:05:57;3.75;2.25;2.00
68841;PMS5003;55849;48.482;2.332;2023-07-16T13:09:00;7.75;6.00;3.50
68841;PMS5003;55849;48.482;2.332;2023-07-16T13:12:01;4.00;3.00;2.00
68841;PMS5003;55849;48.482;2.332;2023-07-16T13:15:03;4.00;3.00;2.00
68841;PMS5003;55849;48.482;2.332;2023-07-16T13:18:07;3.25;3.00;3.00
68841;PMS5003;55849;48.482;2.332;2023-07-16T13:21:10;4.00;4.00;2.00
68841;PMS5003;55849;48.482;2.332;2023-07-16T13:24:13;4.75;3.00;2.00
68841;PMS5003;55849;48.482;2.332;2023-07-16T13:27:19;4.50;4.00;2.25
68841;PMS5003;55849;48.482;2.332;2023-07-16T13:30:21;6.25;3.50;2.75
68841;PMS5003;55849;48.482;2.332;2023-07-16T13:33:23;4.00;3.00;2.00
68841;PMS5003;55849;48.482;2.332;2023-07-16T13:36:24;6.00;3.25;2.00
68841;PMS5003;55849;48.482;2.332;2023-07-16T13:39:27;5.00;3.00;2.00
68841;PMS5003;55849;48.482;2.332;2023-07-16T13:42:29;3.00;3.00;2.00
68841;PMS5003;55849;48.482;2.332;2023-07-16T13:45:31;4.00;4.00;2.00
68841;PMS5003;55849;48.482;2.332;2023-07-16T13:48:33;4.25;4.00;2.00
68841;PMS5003;55849;48.482;2.332;2023-07-16T13:51:34;2.00;2.00;1.00
68841;PMS5003;55849;48.482;2.332;2023-07-16T13:54:37;3.25;3.25;2.00
68841;PMS5003;55849;48.482;2.332;2023-07-16T13:57:39;4.25;2.00;1.00
68841;PMS5003;55849;48.482;2.332;2023-07-16T14:00:40;4.50;2.75;2.00
68841;PMS5003;55849;48.482;2.332;2023-07-16T14:03:42;2.25;2.25;1.00
68841;PMS5003;55849;48.482;2.332;2023-07-16T14:06:44;6.50;2.00;1.00
68841;PMS5003;55849;48.482;2.332;2023-07-16T14:09:47;3.50;2.50;1.00
68841;PMS5003;55849;48.482;2.332;2023-07-16T14:12:48;3.00;2.00;1.00
68841;PMS5003;55849;48.482;2.332;2023-07-16T14:15:50;4.75;1.75;1.00
68841;PMS5003;55849;48.482;2.332;2023-07-16T14:18:52;3.00;3.00;1.00
68841;PMS5003;55849;48.482;2.332;2023-07-16T14:21:54;2.00;2.00;1.75
68841;PMS5003;55849;48.482;2.332;2023-07-16T14:24:57;3.00;3.00;1.00
68841;PMS5003;55849;48.482;2.332;2023-07-16T14:27:59;2.25;2.25;2.00
68841;PMS5003;55849;48.482;2.332;2023-07-16T14:31:01;2.00;2.00;2.00
68841;PMS5003;55849;48.482;2.332;2023-07-16T14:34:02;3.00;1.00;0.25
68841;PMS5003;55849;48.482;2.332;2023-07-16T14:37:04;1.00;1.00;1.00
68841;PMS5003;55849;48.482;2.332;2023-07-16T14:40:07;1.00;1.00;1.00
68841;PMS5003;55849;48.482;2.332;2023-07-16T14:43:10;0.25;0.25;0.00
68841;PMS5003;55849;48.482;2.332;2023-07-16T14:46:12;1.00;1.00;1.00
68841;PMS5003;55849;48.482;2.332;2023-07-16T14:49:15;2.00;2.00;1.25
68841;PMS5003;55849;48.482;2.332;2023-07-16T14:52:17;4.00;4.00;2.00
68841;PMS5003;55849;48.482;2.332;2023-07-16T14:55:20;2.00;2.00;0.00
68841;PMS5003;55849;48.482;2.332;2023-07-16T14:58:22;1.00;1.00;1.00
68841;PMS5003;55849;48.482;2.332;2023-07-16T15:01:25;3.00;2.25;1.25
68841;PMS5003;55849;48.482;2.332;2023-07-16T15:04:27;3.00;2.00;1.00
68841;PMS5003;55849;48.482;2.332;2023-07-16T15:07:28;2.50;2.50;1.00
68841;PMS5003;55849;48.482;2.332;2023-07-16T15:10:31;1.25;1.25;1.00
68841;PMS5003;55849;48.482;2.332;2023-07-16T15:13:33;2.00;2.00;2.00
68841;PMS5003;55849;48.482;2.332;2023-07-16T15:16:35;3.50;2.00;1.00
68841;PMS5003;55849;48.482;2.332;2023-07-16T15:19:36;1.75;1.75;1.00
68841;PMS5003;55849;48.482;2.332;2023-07-16T15:22:39;1.25;1.25;1.00
68841;PMS5003;55849;48.482;2.332;2023-07-16T15:25:42;2.00;2.00;1.00
68841;PMS5003;55849;48.482;2.332;2023-07-16T15:28:44;3.25;3.00;1.75
68841;PMS5003;55849;48.482;2.332;2023-07-16T15:31:45;1.00;1.00;1.00
68841;PMS5003;55849;48.482;2.332;2023-07-16T15:34:47;1.00;0.25;0.25
68841;PMS5003;55849;48.482;2.332;2023-07-16T15:37:48;1.00;1.00;1.00
68841;PMS5003;55849;48.482;2.332;2023-07-16T15:40:51;1.00;1.00;0.00
68841;PMS5003;55849;48.482;2.332;2023-07-16T15:43:53;4.75;2.50;1.25
68841;PMS5003;55849;48.482;2.332;2023-07-16T15:46:55;1.75;1.75;1.00
68841;PMS5003;55849;48.482;2.332;2023-07-16T15:49:57;1.50;1.00;1.00
68841;PMS5003;55849;48.482;2.332;2023-07-16T15:52:58;3.50;1.50;1.50
68841;PMS5003;55849;48.482;2.332;2023-07-16T15:56:02;1.50;0.00;0.00
68841;PMS5003;55849;48.482;2.332;2023-07-16T15:59:04;1.00;1.00;1.00
68841;PMS5003;55849;48.482;2.332;2023-07-16T16:02:05;1.00;0.00;0.00
68841;PMS5003;55849;48.482;2.332;2023-07-16T16:05:07;2.00;2.00;0.75
68841;PMS5003;55849;48.482;2.332;2023-07-16T16:08:10;0.50;0.50;0.50
68841;PMS5003;55849;48.482;2.332;2023-07-16T16:11:14;0.25;0.25;0.00
68841;PMS5003;55849;48.482;2.332;2023-07-16T16:14:16;1.00;1.00;0.00
68841;PMS5003;55849;48.482;2.332;2023-07-16T16:17:17;2.00;0.00;0.00
68841;PMS5003;55849;48.482;2.332;2023-07-16T16:20:19;2.00;0.00;0.00
68841;PMS5003;55849;48.482;2.332;2023-07-16T16:23:21;3.00;1.00;0.00
68841;PMS5003;55849;48.482;2.332;2023-07-16T16:26:24;2.00;1.00;0.00
68841;PMS5003;55849;48.482;2.332;2023-07-16T16:29:26;2.75;1.00;1.00
68841;PMS5003;55849;48.482;2.332;2023-07-16T16:32:27;2.00;1.00;1.00
68841;PMS5003;55849;48.482;2.332;2023-07-16T16:35:31;1.25;0.25;0.00
68841;PMS5003;55849;48.482;2.332;2023-07-16T16:38:33;3.00;3.00;1.00
68841;PMS5003;55849;48.482;2.332;2023-07-16T16:41:36;0.00;0.00;0.00
68841;PMS5003;55849;48.482;2.332;2023-07-16T16:44:38;2.00;0.00;0.00
68841;PMS5003;55849;48.482;2.332;2023-07-16T16:47:39;1.00;1.00;1.00
68841;PMS5003;55849;48.482;2.332;2023-07-16T16:50:41;2.50;2.25;1.00
68841;PMS5003;55849;48.482;2.332;2023-07-16T16:53:43;2.00;0.00;0.00
68841;PMS5003;55849;48.482;2.332;2023-07-16T16:56:46;1.00;1.00;1.00
68841;PMS5003;55849;48.482;2.332;2023-07-16T16:59:48;3.00;3.00;1.50
68841;PMS5003;55849;48.482;2.332;2023-07-16T17:02:50;2.00;2.00;1.25
68841;PMS5003;55849;48.482;2.332;2023-07-16T17:05:52;2.00;1.00;0.00
68841;PMS5003;55849;48.482;2.332;2023-07-16T17:08:56;1.50;1.00;1.00
68841;PMS5003;55849;48.482;2.332;2023-07-16T17:11:59;2.50;1.50;0.50
68841;PMS5003;55849;48.482;2.332;2023-07-16T17:15:00;1.25;1.00;0.00
68841;PMS5003;55849;48.482;2.332;2023-07-16T17:18:02;4.00;1.00;0.00
68841;PMS5003;55849;48.482;2.332;2023-07-16T17:21:05;1.25;1.25;0.50
68841;PMS5003;55849;48.482;2.332;2023-07-16T17:24:06;0.25;0.25;0.00
68841;PMS5003;55849;48.482;2.332;2023-07-16T17:27:09;2.00;0.75;0.00
68841;PMS5003;55849;48.482;2.332;2023-07-16T17:30:16;0.25;0.25;0.00
68841;PMS5003;55849;48.482;2.332;2023-07-16T17:33:18;3.00;3.00;1.25
68841;PMS5003;55849;48.482;2.332;2023-07-16T17:36:19;1.25;1.00;0.00
68841;PMS5003;55849;48.482;2.332;2023-07-16T17:39:22;1.00;1.00;0.00
68841;PMS5003;55849;48.482;2.332;2023-07-16T17:42:25;1.75;1.75;1.00
68841;PMS5003;55849;48.482;2.332;2023-07-16T17:45:27;1.50;0.00;0.00